Terminal Aerodrome Forecast
Issued by NWS Sioux Falls, SD

Home | Current Version | Previous Version | Graphics & Text | Print | Product List | Glossary Off
Versions: 1 2 3 4 5 6 7 8 9 10 11 12 13 14 15 16

000
FTUS43 KFSD 261722 CCA
TAFFSD
TAF COR
KFSD 261722Z 2617/2718 06012KT P6SM SCT015 BKN025 BKN070
     FM262200 03010KT P6SM SCT040 BKN120
     FM270100 02006KT P6SM FEW250
     FM270600 06003KT P6SM SKC=

USA.gov is the U.S. government's official web portal to all federal, state and local government web resources and services.